sensor_id;sensor_type;location;lat;lon;timestamp;P1;durP1;ratioP1;P2;durP2;ratioP2
59960;SDS011;55902;-37.980;-63.602;2024-03-08T00:00:10;5.05;;;2.55;;
59960;SDS011;55902;-37.980;-63.602;2024-03-08T00:02:38;6.78;;;2.88;;
59960;SDS011;55902;-37.980;-63.602;2024-03-08T00:05:06;8.30;;;2.95;;
59960;SDS011;55902;-37.980;-63.602;2024-03-08T00:07:35;6.70;;;2.50;;
59960;SDS011;55902;-37.980;-63.602;2024-03-08T00:10:06;5.13;;;2.30;;
59960;SDS011;55902;-37.980;-63.602;2024-03-08T00:12:41;5.55;;;2.40;;
59960;SDS011;55902;-37.980;-63.602;2024-03-08T00:15:12;8.32;;;2.78;;
59960;SDS011;55902;-37.980;-63.602;2024-03-08T00:17:41;7.47;;;2.42;;
59960;SDS011;55902;-37.980;-63.602;2024-03-08T00:20:08;9.80;;;2.90;;
59960;SDS011;55902;-37.980;-63.602;2024-03-08T00:22:39;8.80;;;2.80;;
59960;SDS011;55902;-37.980;-63.602;2024-03-08T00:25:06;5.80;;;2.50;;
59960;SDS011;55902;-37.980;-63.602;2024-03-08T00:27:40;3.78;;;2.20;;
59960;SDS011;55902;-37.980;-63.602;2024-03-08T00:30:07;4.80;;;2.70;;
59960;SDS011;55902;-37.980;-63.602;2024-03-08T00:32:34;8.05;;;2.70;;
59960;SDS011;55902;-37.980;-63.602;2024-03-08T00:35:02;5.25;;;2.35;;
59960;SDS011;55902;-37.980;-63.602;2024-03-08T00:37:29;6.63;;;2.60;;
59960;SDS011;55902;-37.980;-63.602;2024-03-08T00:39:56;6.43;;;2.88;;
59960;SDS011;55902;-37.980;-63.602;2024-03-08T00:42:24;6.57;;;2.42;;
59960;SDS011;55902;-37.980;-63.602;2024-03-08T00:44:52;6.10;;;2.30;;
59960;SDS011;55902;-37.980;-63.602;2024-03-08T00:47:19;6.80;;;2.63;;
59960;SDS011;55902;-37.980;-63.602;2024-03-08T00:49:46;7.20;;;2.70;;
59960;SDS011;55902;-37.980;-63.602;2024-03-08T00:52:13;7.63;;;2.53;;
59960;SDS011;55902;-37.980;-63.602;2024-03-08T00:54:41;6.63;;;2.38;;
59960;SDS011;55902;-37.980;-63.602;2024-03-08T00:57:13;5.53;;;2.50;;
59960;SDS011;55902;-37.980;-63.602;2024-03-08T00:59:43;8.43;;;2.72;;
59960;SDS011;55902;-37.980;-63.602;2024-03-08T01:02:10;6.00;;;2.40;;
59960;SDS011;55902;-37.980;-63.602;2024-03-08T01:04:40;5.63;;;2.80;;
59960;SDS011;55902;-37.980;-63.602;2024-03-08T01:07:07;7.05;;;2.60;;
59960;SDS011;55902;-37.980;-63.602;2024-03-08T01:09:34;7.32;;;2.63;;
59960;SDS011;55902;-37.980;-63.602;2024-03-08T01:12:01;6.82;;;2.70;;
59960;SDS011;55902;-37.980;-63.602;2024-03-08T01:14:32;9.73;;;2.55;;
59960;SDS011;55902;-37.980;-63.602;2024-03-08T01:17:02;8.43;;;2.70;;
59960;SDS011;55902;-37.980;-63.602;2024-03-08T01:19:29;5.85;;;2.50;;
59960;SDS011;55902;-37.980;-63.602;2024-03-08T01:21:57;9.73;;;3.08;;
59960;SDS011;55902;-37.980;-63.602;2024-03-08T01:24:24;7.00;;;2.55;;
59960;SDS011;55902;-37.980;-63.602;2024-03-08T01:26:51;10.07;;;2.97;;
59960;SDS011;55902;-37.980;-63.602;2024-03-08T01:29:18;7.45;;;2.42;;
59960;SDS011;55902;-37.980;-63.602;2024-03-08T01:31:45;6.80;;;2.72;;
59960;SDS011;55902;-37.980;-63.602;2024-03-08T01:34:14;6.97;;;2.65;;
59960;SDS011;55902;-37.980;-63.602;2024-03-08T01:36:41;9.82;;;2.65;;
59960;SDS011;55902;-37.980;-63.602;2024-03-08T01:39:08;6.15;;;2.50;;
59960;SDS011;55902;-37.980;-63.602;2024-03-08T01:41:36;5.70;;;2.40;;
59960;SDS011;55902;-37.980;-63.602;2024-03-08T01:44:05;6.32;;;2.67;;
59960;SDS011;55902;-37.980;-63.602;2024-03-08T01:46:35;6.25;;;2.45;;
59960;SDS011;55902;-37.980;-63.602;2024-03-08T01:49:02;5.43;;;2.50;;
59960;SDS011;55902;-37.980;-63.602;2024-03-08T01:51:32;6.90;;;2.78;;
59960;SDS011;55902;-37.980;-63.602;2024-03-08T01:54:04;5.65;;;2.40;;
59960;SDS011;55902;-37.980;-63.602;2024-03-08T01:56:31;6.65;;;2.72;;
59960;SDS011;55902;-37.980;-63.602;2024-03-08T01:58:58;9.02;;;2.30;;
59960;SDS011;55902;-37.980;-63.602;2024-03-08T02:01:26;6.88;;;2.58;;
59960;SDS011;55902;-37.980;-63.602;2024-03-08T02:03:55;5.32;;;2.50;;
59960;SDS011;55902;-37.980;-63.602;2024-03-08T02:06:22;7.78;;;2.33;;
59960;SDS011;55902;-37.980;-63.602;2024-03-08T02:08:49;7.93;;;2.40;;
59960;SDS011;55902;-37.980;-63.602;2024-03-08T02:11:16;5.05;;;2.30;;
59960;SDS011;55902;-37.980;-63.602;2024-03-08T02:13:46;6.70;;;2.67;;
59960;SDS011;55902;-37.980;-63.602;2024-03-08T02:16:19;7.75;;;2.60;;
59960;SDS011;55902;-37.980;-63.602;2024-03-08T02:18:51;6.10;;;2.97;;
59960;SDS011;55902;-37.980;-63.602;2024-03-08T02:21:18;8.95;;;3.58;;
59960;SDS011;55902;-37.980;-63.602;2024-03-08T02:23:46;7.63;;;3.67;;
59960;SDS011;55902;-37.980;-63.602;2024-03-08T02:26:13;7.03;;;2.90;;
59960;SDS011;55902;-37.980;-63.602;2024-03-08T02:28:41;6.55;;;2.85;;
59960;SDS011;55902;-37.980;-63.602;2024-03-08T02:31:10;5.95;;;2.55;;
59960;SDS011;55902;-37.980;-63.602;2024-03-08T02:33:39;7.28;;;2.55;;
59960;SDS011;55902;-37.980;-63.602;2024-03-08T02:36:07;6.28;;;2.40;;
59960;SDS011;55902;-37.980;-63.602;2024-03-08T02:38:34;7.32;;;2.78;;
59960;SDS011;55902;-37.980;-63.602;2024-03-08T02:41:06;5.88;;;2.70;;
59960;SDS011;55902;-37.980;-63.602;2024-03-08T02:43:34;5.75;;;2.55;;
59960;SDS011;55902;-37.980;-63.602;2024-03-08T02:46:01;4.20;;;2.30;;
59960;SDS011;55902;-37.980;-63.602;2024-03-08T02:48:28;5.85;;;2.45;;
59960;SDS011;55902;-37.980;-63.602;2024-03-08T02:50:56;4.03;;;2.30;;
59960;SDS011;55902;-37.980;-63.602;2024-03-08T02:53:23;4.35;;;2.08;;
59960;SDS011;55902;-37.980;-63.602;2024-03-08T02:55:50;4.57;;;2.20;;
59960;SDS011;55902;-37.980;-63.602;2024-03-08T02:58:17;4.38;;;2.30;;
59960;SDS011;55902;-37.980;-63.602;2024-03-08T03:00:44;4.95;;;2.17;;
59960;SDS011;55902;-37.980;-63.602;2024-03-08T03:03:11;6.35;;;2.75;;
59960;SDS011;55902;-37.980;-63.602;2024-03-08T03:05:38;5.53;;;2.15;;
59960;SDS011;55902;-37.980;-63.602;2024-03-08T03:08:06;9.27;;;2.47;;
59960;SDS011;55902;-37.980;-63.602;2024-03-08T03:10:34;5.88;;;2.17;;
59960;SDS011;55902;-37.980;-63.602;2024-03-08T03:13:01;4.72;;;2.30;;
59960;SDS011;55902;-37.980;-63.602;2024-03-08T03:15:30;7.60;;;2.63;;
59960;SDS011;55902;-37.980;-63.602;2024-03-08T03:17:57;7.10;;;2.35;;
59960;SDS011;55902;-37.980;-63.602;2024-03-08T03:20:23;4.50;;;1.60;;
59960;SDS011;55902;-37.980;-63.602;2024-03-08T03:32:45;4.43;;;1.98;;
59960;SDS011;55902;-37.980;-63.602;2024-03-08T03:35:13;3.40;;;1.75;;
59960;SDS011;55902;-37.980;-63.602;2024-03-08T03:37:42;5.75;;;1.95;;
59960;SDS011;55902;-37.980;-63.602;2024-03-08T03:40:16;6.40;;;2.17;;
59960;SDS011;55902;-37.980;-63.602;2024-03-08T03:42:46;5.50;;;2.03;;
59960;SDS011;55902;-37.980;-63.602;2024-03-08T03:45:13;4.32;;;2.08;;
59960;SDS011;55902;-37.980;-63.602;2024-03-08T03:47:45;3.63;;;1.90;;
59960;SDS011;55902;-37.980;-63.602;2024-03-08T03:50:12;5.22;;;1.83;;
59960;SDS011;55902;-37.980;-63.602;2024-03-08T03:52:39;3.88;;;1.60;;
59960;SDS011;55902;-37.980;-63.602;2024-03-08T03:55:07;4.95;;;1.77;;
59960;SDS011;55902;-37.980;-63.602;2024-03-08T03:57:37;5.93;;;1.92;;
59960;SDS011;55902;-37.980;-63.602;2024-03-08T04:00:06;4.82;;;1.73;;
59960;SDS011;55902;-37.980;-63.602;2024-03-08T04:02:39;6.50;;;1.75;;
59960;SDS011;55902;-37.980;-63.602;2024-03-08T04:05:08;5.38;;;1.52;;
59960;SDS011;55902;-37.980;-63.602;2024-03-08T04:07:35;3.15;;;1.60;;
59960;SDS011;55902;-37.980;-63.602;2024-03-08T04:10:03;5.13;;;1.90;;
59960;SDS011;55902;-37.980;-63.602;2024-03-08T04:12:34;4.00;;;1.50;;
59960;SDS011;55902;-37.980;-63.602;2024-03-08T04:15:06;4.30;;;1.60;;
59960;SDS011;55902;-37.980;-63.602;2024-03-08T04:17:33;4.30;;;1.80;;
59960;SDS011;55902;-37.980;-63.602;2024-03-08T04:20:03;4.60;;;1.50;;
59960;SDS011;55902;-37.980;-63.602;2024-03-08T04:22:36;3.55;;;1.63;;
59960;SDS011;55902;-37.980;-63.602;2024-03-08T04:25:03;4.07;;;1.65;;
59960;SDS011;55902;-37.980;-63.602;2024-03-08T04:27:31;4.82;;;1.60;;
59960;SDS011;55902;-37.980;-63.602;2024-03-08T04:30:00;4.65;;;1.60;;
59960;SDS011;55902;-37.980;-63.602;2024-03-08T04:32:27;4.88;;;1.52;;
59960;SDS011;55902;-37.980;-63.602;2024-03-08T04:34:55;5.25;;;1.80;;
59960;SDS011;55902;-37.980;-63.602;2024-03-08T04:37:22;3.78;;;1.52;;
59960;SDS011;55902;-37.980;-63.602;2024-03-08T04:39:50;3.65;;;1.48;;
59960;SDS011;55902;-37.980;-63.602;2024-03-08T04:42:17;6.53;;;1.65;;
59960;SDS011;55902;-37.980;-63.602;2024-03-08T04:44:44;6.72;;;1.58;;
59960;SDS011;55902;-37.980;-63.602;2024-03-08T04:47:11;3.85;;;1.88;;
59960;SDS011;55902;-37.980;-63.602;2024-03-08T04:49:38;8.05;;;1.77;;
59960;SDS011;55902;-37.980;-63.602;2024-03-08T04:52:05;3.15;;;1.50;;
59960;SDS011;55902;-37.980;-63.602;2024-03-08T04:54:32;5.22;;;2.00;;
59960;SDS011;55902;-37.980;-63.602;2024-03-08T04:56:59;3.22;;;1.70;;
59960;SDS011;55902;-37.980;-63.602;2024-03-08T04:59:27;4.38;;;1.52;;
59960;SDS011;55902;-37.980;-63.602;2024-03-08T05:01:54;4.93;;;1.92;;
59960;SDS011;55902;-37.980;-63.602;2024-03-08T05:04:21;5.22;;;2.65;;
59960;SDS011;55902;-37.980;-63.602;2024-03-08T05:06:48;5.53;;;2.40;;
59960;SDS011;55902;-37.980;-63.602;2024-03-08T05:09:15;5.88;;;2.53;;
59960;SDS011;55902;-37.980;-63.602;2024-03-08T05:11:44;7.45;;;2.83;;
59960;SDS011;55902;-37.980;-63.602;2024-03-08T05:14:13;11.32;;;2.90;;
59960;SDS011;55902;-37.980;-63.602;2024-03-08T05:16:45;7.25;;;3.10;;
59960;SDS011;55902;-37.980;-63.602;2024-03-08T05:19:16;7.28;;;2.85;;
59960;SDS011;55902;-37.980;-63.602;2024-03-08T05:21:44;6.60;;;2.70;;
59960;SDS011;55902;-37.980;-63.602;2024-03-08T05:24:12;5.45;;;2.20;;
59960;SDS011;55902;-37.980;-63.602;2024-03-08T05:26:40;5.55;;;1.70;;
59960;SDS011;55902;-37.980;-63.602;2024-03-08T05:29:07;3.40;;;1.52;;
59960;SDS011;55902;-37.980;-63.602;2024-03-08T05:31:48;4.22;;;1.50;;
59960;SDS011;55902;-37.980;-63.602;2024-03-08T05:34:17;5.72;;;1.80;;
59960;SDS011;55902;-37.980;-63.602;2024-03-08T05:36:48;2.92;;;1.58;;
59960;SDS011;55902;-37.980;-63.602;2024-03-08T05:39:16;5.97;;;1.73;;
59960;SDS011;55902;-37.980;-63.602;2024-03-08T05:41:44;3.72;;;1.63;;
59960;SDS011;55902;-37.980;-63.602;2024-03-08T05:44:14;7.72;;;2.20;;
59960;SDS011;55902;-37.980;-63.602;2024-03-08T05:46:42;5.35;;;2.03;;
59960;SDS011;55902;-37.980;-63.602;2024-03-08T05:49:09;5.63;;;1.92;;
59960;SDS011;55902;-37.980;-63.602;2024-03-08T05:51:37;8.50;;;2.28;;
59960;SDS011;55902;-37.980;-63.602;2024-03-08T05:54:05;8.07;;;1.80;;
59960;SDS011;55902;-37.980;-63.602;2024-03-08T06:07:18;5.05;;;2.70;;
59960;SDS011;55902;-37.980;-63.602;2024-03-08T06:09:46;7.28;;;2.80;;
59960;SDS011;55902;-37.980;-63.602;2024-03-08T06:12:13;5.72;;;2.80;;
59960;SDS011;55902;-37.980;-63.602;2024-03-08T06:14:47;7.20;;;2.50;;
59960;SDS011;55902;-37.980;-63.602;2024-03-08T06:17:14;4.93;;;2.30;;
59960;SDS011;55902;-37.980;-63.602;2024-03-08T06:19:42;4.75;;;2.60;;
59960;SDS011;55902;-37.980;-63.602;2024-03-08T06:22:09;8.88;;;2.97;;
59960;SDS011;55902;-37.980;-63.602;2024-03-08T06:24:36;8.95;;;2.92;;
59960;SDS011;55902;-37.980;-63.602;2024-03-08T06:27:06;7.43;;;2.88;;
59960;SDS011;55902;-37.980;-63.602;2024-03-08T06:29:35;5.90;;;2.90;;
59960;SDS011;55902;-37.980;-63.602;2024-03-08T06:32:02;6.68;;;2.67;;
59960;SDS011;55902;-37.980;-63.602;2024-03-08T06:34:29;6.03;;;2.80;;
59960;SDS011;55902;-37.980;-63.602;2024-03-08T06:37:00;8.50;;;2.72;;
59960;SDS011;55902;-37.980;-63.602;2024-03-08T06:39:27;8.82;;;2.97;;
59960;SDS011;55902;-37.980;-63.602;2024-03-08T06:41:58;7.20;;;2.80;;
59960;SDS011;55902;-37.980;-63.602;2024-03-08T06:44:25;9.20;;;3.20;;
59960;SDS011;55902;-37.980;-63.602;2024-03-08T06:46:52;6.07;;;2.90;;
59960;SDS011;55902;-37.980;-63.602;2024-03-08T06:49:19;6.75;;;3.03;;
59960;SDS011;55902;-37.980;-63.602;2024-03-08T06:51:46;7.93;;;3.30;;
59960;SDS011;55902;-37.980;-63.602;2024-03-08T06:54:13;8.45;;;3.42;;
59960;SDS011;55902;-37.980;-63.602;2024-03-08T06:56:40;7.50;;;3.10;;
59960;SDS011;55902;-37.980;-63.602;2024-03-08T06:59:07;6.43;;;2.88;;
59960;SDS011;55902;-37.980;-63.602;2024-03-08T07:01:36;7.47;;;3.30;;
59960;SDS011;55902;-37.980;-63.602;2024-03-08T07:04:03;5.32;;;3.05;;
59960;SDS011;55902;-37.980;-63.602;2024-03-08T07:06:32;6.32;;;2.90;;
59960;SDS011;55902;-37.980;-63.602;2024-03-08T07:08:59;8.43;;;2.90;;
59960;SDS011;55902;-37.980;-63.602;2024-03-08T07:11:26;7.00;;;2.85;;
59960;SDS011;55902;-37.980;-63.602;2024-03-08T07:13:53;6.38;;;2.80;;
59960;SDS011;55902;-37.980;-63.602;2024-03-08T07:16:20;6.45;;;2.50;;
59960;SDS011;55902;-37.980;-63.602;2024-03-08T07:18:47;7.07;;;3.03;;
59960;SDS011;55902;-37.980;-63.602;2024-03-08T07:21:17;8.00;;;3.08;;
59960;SDS011;55902;-37.980;-63.602;2024-03-08T07:23:45;6.07;;;3.08;;
59960;SDS011;55902;-37.980;-63.602;2024-03-08T07:26:19;7.83;;;3.57;;
59960;SDS011;55902;-37.980;-63.602;2024-03-08T07:28:46;7.38;;;3.00;;
59960;SDS011;55902;-37.980;-63.602;2024-03-08T07:31:13;5.25;;;2.70;;
59960;SDS011;55902;-37.980;-63.602;2024-03-08T07:33:40;6.07;;;3.00;;
59960;SDS011;55902;-37.980;-63.602;2024-03-08T07:36:07;7.72;;;3.33;;
59960;SDS011;55902;-37.980;-63.602;2024-03-08T07:38:34;8.10;;;3.40;;
59960;SDS011;55902;-37.980;-63.602;2024-03-08T07:41:01;5.70;;;2.60;;
59960;SDS011;55902;-37.980;-63.602;2024-03-08T07:43:28;6.43;;;2.70;;
59960;SDS011;55902;-37.980;-63.602;2024-03-08T07:45:58;8.15;;;3.10;;
59960;SDS011;55902;-37.980;-63.602;2024-03-08T07:48:25;7.75;;;3.10;;
59960;SDS011;55902;-37.980;-63.602;2024-03-08T07:50:52;8.68;;;3.20;;
59960;SDS011;55902;-37.980;-63.602;2024-03-08T07:53:19;8.80;;;3.10;;
59960;SDS011;55902;-37.980;-63.602;2024-03-08T07:55:46;7.22;;;2.70;;
59960;SDS011;55902;-37.980;-63.602;2024-03-08T07:58:13;7.43;;;2.70;;
59960;SDS011;55902;-37.980;-63.602;2024-03-08T08:00:40;7.57;;;2.65;;
59960;SDS011;55902;-37.980;-63.602;2024-03-08T08:03:08;7.68;;;2.70;;
59960;SDS011;55902;-37.980;-63.602;2024-03-08T08:05:35;7.60;;;3.13;;
59960;SDS011;55902;-37.980;-63.602;2024-03-08T08:08:04;8.07;;;2.97;;
59960;SDS011;55902;-37.980;-63.602;2024-03-08T08:10:33;6.90;;;3.22;;
59960;SDS011;55902;-37.980;-63.602;2024-03-08T08:13:00;6.55;;;2.92;;
59960;SDS011;55902;-37.980;-63.602;2024-03-08T08:15:29;7.80;;;2.80;;
59960;SDS011;55902;-37.980;-63.602;2024-03-08T08:17:56;7.30;;;2.80;;
59960;SDS011;55902;-37.980;-63.602;2024-03-08T08:20:23;6.15;;;2.80;;
59960;SDS011;55902;-37.980;-63.602;2024-03-08T08:22:51;7.63;;;2.78;;
59960;SDS011;55902;-37.980;-63.602;2024-03-08T08:25:20;11.10;;;3.35;;
59960;SDS011;55902;-37.980;-63.602;2024-03-08T08:27:49;9.13;;;3.03;;
59960;SDS011;55902;-37.980;-63.602;2024-03-08T08:30:18;6.72;;;2.70;;
59960;SDS011;55902;-37.980;-63.602;2024-03-08T08:32:46;5.38;;;2.45;;
59960;SDS011;55902;-37.980;-63.602;2024-03-08T08:35:14;7.47;;;2.60;;
59960;SDS011;55902;-37.980;-63.602;2024-03-08T08:37:41;7.75;;;2.35;;
59960;SDS011;55902;-37.980;-63.602;2024-03-08T08:40:09;4.00;;;2.40;;
59960;SDS011;55902;-37.980;-63.602;2024-03-08T08:42:44;5.93;;;2.50;;
59960;SDS011;55902;-37.980;-63.602;2024-03-08T08:45:11;5.00;;;2.40;;
59960;SDS011;55902;-37.980;-63.602;2024-03-08T08:47:39;4.85;;;2.35;;
59960;SDS011;55902;-37.980;-63.602;2024-03-08T08:50:08;5.75;;;2.42;;
59960;SDS011;55902;-37.980;-63.602;2024-03-08T08:52:37;6.57;;;2.47;;
59960;SDS011;55902;-37.980;-63.602;2024-03-08T08:55:05;9.98;;;2.50;;
59960;SDS011;55902;-37.980;-63.602;2024-03-08T08:57:32;6.32;;;2.58;;
59960;SDS011;55902;-37.980;-63.602;2024-03-08T09:00:01;7.22;;;2.40;;
59960;SDS011;55902;-37.980;-63.602;2024-03-08T09:02:33;6.43;;;2.50;;
59960;SDS011;55902;-37.980;-63.602;2024-03-08T09:05:00;5.10;;;2.63;;
59960;SDS011;55902;-37.980;-63.602;2024-03-08T09:07:27;7.25;;;2.75;;
59960;SDS011;55902;-37.980;-63.602;2024-03-08T09:09:54;8.32;;;2.65;;
59960;SDS011;55902;-37.980;-63.602;2024-03-08T09:12:23;6.05;;;2.60;;
59960;SDS011;55902;-37.980;-63.602;2024-03-08T09:14:50;8.57;;;2.30;;
59960;SDS011;55902;-37.980;-63.602;2024-03-08T09:17:21;6.38;;;2.25;;
59960;SDS011;55902;-37.980;-63.602;2024-03-08T09:19:48;4.82;;;2.05;;
59960;SDS011;55902;-37.980;-63.602;2024-03-08T09:22:15;4.78;;;2.10;;
59960;SDS011;55902;-37.980;-63.602;2024-03-08T09:24:43;5.00;;;2.20;;
59960;SDS011;55902;-37.980;-63.602;2024-03-08T09:27:11;5.30;;;2.42;;
59960;SDS011;55902;-37.980;-63.602;2024-03-08T09:29:41;5.35;;;2.20;;
59960;SDS011;55902;-37.980;-63.602;2024-03-08T09:32:09;6.57;;;2.58;;
59960;SDS011;55902;-37.980;-63.602;2024-03-08T09:34:39;5.97;;;2.28;;
59960;SDS011;55902;-37.980;-63.602;2024-03-08T09:37:06;5.38;;;2.13;;
59960;SDS011;55902;-37.980;-63.602;2024-03-08T09:39:34;4.70;;;2.10;;
59960;SDS011;55902;-37.980;-63.602;2024-03-08T09:42:01;5.72;;;2.13;;
59960;SDS011;55902;-37.980;-63.602;2024-03-08T09:44:29;4.97;;;2.33;;
59960;SDS011;55902;-37.980;-63.602;2024-03-08T09:47:00;3.95;;;2.10;;
59960;SDS011;55902;-37.980;-63.602;2024-03-08T09:49:28;3.97;;;2.10;;
59960;SDS011;55902;-37.980;-63.602;2024-03-08T09:51:55;6.22;;;1.90;;
59960;SDS011;55902;-37.980;-63.602;2024-03-08T09:54:35;4.57;;;2.28;;
59960;SDS011;55902;-37.980;-63.602;2024-03-08T09:57:06;5.75;;;2.60;;
59960;SDS011;55902;-37.980;-63.602;2024-03-08T09:59:34;4.97;;;2.20;;
59960;SDS011;55902;-37.980;-63.602;2024-03-08T10:02:01;7.07;;;2.22;;
59960;SDS011;55902;-37.980;-63.602;2024-03-08T10:04:29;5.88;;;2.20;;
59960;SDS011;55902;-37.980;-63.602;2024-03-08T10:07:01;6.65;;;2.40;;
59960;SDS011;55902;-37.980;-63.602;2024-03-08T10:19:34;4.80;;;2.30;;
59960;SDS011;55902;-37.980;-63.602;2024-03-08T10:22:01;5.53;;;2.22;;
59960;SDS011;55902;-37.980;-63.602;2024-03-08T10:24:30;5.20;;;2.20;;
59960;SDS011;55902;-37.980;-63.602;2024-03-08T10:26:59;9.23;;;2.35;;
59960;SDS011;55902;-37.980;-63.602;2024-03-08T10:29:32;5.20;;;2.20;;
59960;SDS011;55902;-37.980;-63.602;2024-03-08T10:31:59;4.25;;;2.10;;
59960;SDS011;55902;-37.980;-63.602;2024-03-08T10:34:31;7.10;;;2.42;;
59960;SDS011;55902;-37.980;-63.602;2024-03-08T10:37:00;4.78;;;2.40;;
59960;SDS011;55902;-37.980;-63.602;2024-03-08T10:39:36;5.55;;;2.30;;
59960;SDS011;55902;-37.980;-63.602;2024-03-08T10:42:04;5.95;;;2.17;;
59960;SDS011;55902;-37.980;-63.602;2024-03-08T10:47:30;5.63;;;2.42;;
59960;SDS011;55902;-37.980;-63.602;2024-03-08T10:50:19;7.07;;;2.58;;
59960;SDS011;55902;-37.980;-63.602;2024-03-08T10:52:50;7.32;;;2.42;;
59960;SDS011;55902;-37.980;-63.602;2024-03-08T10:55:20;5.55;;;2.30;;
59960;SDS011;55902;-37.980;-63.602;2024-03-08T10:57:48;6.03;;;2.65;;
59960;SDS011;55902;-37.980;-63.602;2024-03-08T11:02:58;7.55;;;2.50;;
59960;SDS011;55902;-37.980;-63.602;2024-03-08T11:10:49;8.73;;;2.60;;
59960;SDS011;55902;-37.980;-63.602;2024-03-08T11:13:36;8.80;;;2.40;;
59960;SDS011;55902;-37.980;-63.602;2024-03-08T11:16:13;5.97;;;2.50;;
59960;SDS011;55902;-37.980;-63.602;2024-03-08T11:19:23;7.03;;;3.15;;
59960;SDS011;55902;-37.980;-63.602;2024-03-08T11:21:57;6.55;;;2.63;;
59960;SDS011;55902;-37.980;-63.602;2024-03-08T11:27:12;7.68;;;2.40;;
59960;SDS011;55902;-37.980;-63.602;2024-03-08T11:29:41;6.25;;;2.20;;
59960;SDS011;55902;-37.980;-63.602;2024-03-08T11:32:12;5.05;;;2.30;;
59960;SDS011;55902;-37.980;-63.602;2024-03-08T11:37:13;4.55;;;2.40;;
59960;SDS011;55902;-37.980;-63.602;2024-03-08T11:39:55;6.65;;;2.45;;
59960;SDS011;55902;-37.980;-63.602;2024-03-08T11:42:30;4.15;;;2.63;;
59960;SDS011;55902;-37.980;-63.602;2024-03-08T11:44:57;7.03;;;2.58;;
59960;SDS011;55902;-37.980;-63.602;2024-03-08T11:47:24;5.75;;;2.50;;
59960;SDS011;55902;-37.980;-63.602;2024-03-08T11:49:51;3.13;;;2.20;;
59960;SDS011;55902;-37.980;-63.602;2024-03-08T11:52:19;6.50;;;2.67;;
59960;SDS011;55902;-37.980;-63.602;2024-03-08T11:54:52;5.15;;;2.28;;
59960;SDS011;55902;-37.980;-63.602;2024-03-08T11:57:22;5.13;;;2.38;;
59960;SDS011;55902;-37.980;-63.602;2024-03-08T11:59:53;5.65;;;2.20;;
59960;SDS011;55902;-37.980;-63.602;2024-03-08T12:02:24;5.78;;;2.17;;
59960;SDS011;55902;-37.980;-63.602;2024-03-08T12:04:56;5.60;;;2.30;;
59960;SDS011;55902;-37.980;-63.602;2024-03-08T12:07:55;5.78;;;2.40;;
59960;SDS011;55902;-37.980;-63.602;2024-03-08T12:10:25;7.13;;;2.50;;
59960;SDS011;55902;-37.980;-63.602;2024-03-08T12:12:54;5.07;;;2.53;;
59960;SDS011;55902;-37.980;-63.602;2024-03-08T12:15:28;7.03;;;2.55;;
59960;SDS011;55902;-37.980;-63.602;2024-03-08T12:17:59;5.15;;;2.20;;
59960;SDS011;55902;-37.980;-63.602;2024-03-08T12:20:30;7.28;;;2.40;;
59960;SDS011;55902;-37.980;-63.602;2024-03-08T12:22:57;5.13;;;2.60;;
59960;SDS011;55902;-37.980;-63.602;2024-03-08T12:25:30;5.05;;;2.20;;
59960;SDS011;55902;-37.980;-63.602;2024-03-08T12:28:10;6.30;;;2.45;;
59960;SDS011;55902;-37.980;-63.602;2024-03-08T12:30:51;7.18;;;2.60;;
59960;SDS011;55902;-37.980;-63.602;2024-03-08T12:33:25;4.78;;;2.47;;
59960;SDS011;55902;-37.980;-63.602;2024-03-08T12:35:53;6.00;;;2.42;;
59960;SDS011;55902;-37.980;-63.602;2024-03-08T12:38:21;6.90;;;2.60;;
59960;SDS011;55902;-37.980;-63.602;2024-03-08T12:40:55;5.32;;;2.33;;
59960;SDS011;55902;-37.980;-63.602;2024-03-08T12:43:24;8.35;;;2.60;;
59960;SDS011;55902;-37.980;-63.602;2024-03-08T12:45:54;4.50;;;2.42;;
59960;SDS011;55902;-37.980;-63.602;2024-03-08T12:48:21;7.60;;;2.60;;
59960;SDS011;55902;-37.980;-63.602;2024-03-08T12:50:48;4.28;;;2.17;;
59960;SDS011;55902;-37.980;-63.602;2024-03-08T12:53:16;4.53;;;2.42;;
59960;SDS011;55902;-37.980;-63.602;2024-03-08T12:55:43;4.95;;;2.40;;
59960;SDS011;55902;-37.980;-63.602;2024-03-08T12:58:10;5.05;;;2.30;;
59960;SDS011;55902;-37.980;-63.602;2024-03-08T13:00:37;6.80;;;2.50;;
59960;SDS011;55902;-37.980;-63.602;2024-03-08T13:03:08;6.55;;;2.50;;
59960;SDS011;55902;-37.980;-63.602;2024-03-08T13:05:36;4.30;;;2.55;;
59960;SDS011;55902;-37.980;-63.602;2024-03-08T13:08:06;4.38;;;2.58;;
59960;SDS011;55902;-37.980;-63.602;2024-03-08T13:10:43;4.25;;;2.30;;
59960;SDS011;55902;-37.980;-63.602;2024-03-08T13:13:10;4.07;;;2.30;;
59960;SDS011;55902;-37.980;-63.602;2024-03-08T13:15:41;4.68;;;2.40;;
59960;SDS011;55902;-37.980;-63.602;2024-03-08T13:18:28;5.40;;;2.50;;
59960;SDS011;55902;-37.980;-63.602;2024-03-08T13:20:55;5.65;;;2.65;;
59960;SDS011;55902;-37.980;-63.602;2024-03-08T13:23:31;5.43;;;2.53;;
59960;SDS011;55902;-37.980;-63.602;2024-03-08T13:26:27;6.22;;;2.85;;
59960;SDS011;55902;-37.980;-63.602;2024-03-08T13:28:58;5.13;;;2.67;;
59960;SDS011;55902;-37.980;-63.602;2024-03-08T13:31:25;8.60;;;2.40;;
59960;SDS011;55902;-37.980;-63.602;2024-03-08T13:33:52;5.50;;;2.30;;
59960;SDS011;55902;-37.980;-63.602;2024-03-08T13:36:23;8.00;;;2.67;;
59960;SDS011;55902;-37.980;-63.602;2024-03-08T13:39:00;7.03;;;2.30;;
59960;SDS011;55902;-37.980;-63.602;2024-03-08T13:41:40;7.15;;;2.83;;
59960;SDS011;55902;-37.980;-63.602;2024-03-08T13:44:07;3.95;;;2.25;;
59960;SDS011;55902;-37.980;-63.602;2024-03-08T13:46:35;6.82;;;2.60;;
59960;SDS011;55902;-37.980;-63.602;2024-03-08T13:49:05;4.38;;;2.30;;
59960;SDS011;55902;-37.980;-63.602;2024-03-08T13:51:33;5.20;;;2.40;;
59960;SDS011;55902;-37.980;-63.602;2024-03-08T13:54:01;5.35;;;2.38;;
59960;SDS011;55902;-37.980;-63.602;2024-03-08T13:56:32;6.38;;;2.55;;
59960;SDS011;55902;-37.980;-63.602;2024-03-08T13:59:00;5.43;;;2.60;;
59960;SDS011;55902;-37.980;-63.602;2024-03-08T14:01:27;4.30;;;2.42;;
59960;SDS011;55902;-37.980;-63.602;2024-03-08T14:03:55;5.05;;;2.40;;
59960;SDS011;55902;-37.980;-63.602;2024-03-08T14:06:22;5.22;;;2.42;;
59960;SDS011;55902;-37.980;-63.602;2024-03-08T14:08:51;4.03;;;2.40;;
59960;SDS011;55902;-37.980;-63.602;2024-03-08T14:11:19;5.30;;;2.40;;
59960;SDS011;55902;-37.980;-63.602;2024-03-08T14:13:45;5.30;;;2.50;;
59960;SDS011;55902;-37.980;-63.602;2024-03-08T14:16:13;5.57;;;2.53;;
59960;SDS011;55902;-37.980;-63.602;2024-03-08T14:18:40;6.35;;;2.58;;
59960;SDS011;55902;-37.980;-63.602;2024-03-08T14:21:07;6.20;;;2.40;;
59960;SDS011;55902;-37.980;-63.602;2024-03-08T14:23:36;5.32;;;2.30;;
59960;SDS011;55902;-37.980;-63.602;2024-03-08T14:26:03;4.47;;;2.45;;
59960;SDS011;55902;-37.980;-63.602;2024-03-08T14:28:35;4.75;;;2.10;;
59960;SDS011;55902;-37.980;-63.602;2024-03-08T14:31:04;5.05;;;2.38;;
59960;SDS011;55902;-37.980;-63.602;2024-03-08T14:33:36;4.72;;;2.30;;
59960;SDS011;55902;-37.980;-63.602;2024-03-08T14:36:03;7.30;;;2.40;;
59960;SDS011;55902;-37.980;-63.602;2024-03-08T14:38:31;6.28;;;2.45;;
59960;SDS011;55902;-37.980;-63.602;2024-03-08T14:41:00;8.43;;;2.40;;
59960;SDS011;55902;-37.980;-63.602;2024-03-08T14:43:29;4.28;;;2.00;;
59960;SDS011;55902;-37.980;-63.602;2024-03-08T14:46:02;4.93;;;2.25;;
59960;SDS011;55902;-37.980;-63.602;2024-03-08T14:48:29;4.90;;;2.50;;
59960;SDS011;55902;-37.980;-63.602;2024-03-08T14:50:56;4.78;;;2.10;;
59960;SDS011;55902;-37.980;-63.602;2024-03-08T14:53:25;6.75;;;2.55;;
59960;SDS011;55902;-37.980;-63.602;2024-03-08T14:55:53;4.57;;;2.17;;
59960;SDS011;55902;-37.980;-63.602;2024-03-08T14:58:20;4.25;;;2.17;;
59960;SDS011;55902;-37.980;-63.602;2024-03-08T15:00:56;3.65;;;2.05;;
59960;SDS011;55902;-37.980;-63.602;2024-03-08T15:03:26;7.10;;;2.40;;
59960;SDS011;55902;-37.980;-63.602;2024-03-08T15:05:57;5.13;;;2.25;;